sensor_id;sensor_type;location;lat;lon;timestamp;P1;durP1;ratioP1;P2;durP2;ratioP2
40997;SDS011;26740;45.944;12.480;2022-12-13T00:01:20;21.15;;;10.00;;
40997;SDS011;26740;45.944;12.480;2022-12-13T00:03:46;27.13;;;12.65;;
40997;SDS011;26740;45.944;12.480;2022-12-13T00:06:12;23.05;;;9.90;;
40997;SDS011;26740;45.944;12.480;2022-12-13T00:08:38;19.83;;;10.07;;
40997;SDS011;26740;45.944;12.480;2022-12-13T00:11:06;22.85;;;11.10;;
40997;SDS011;26740;45.944;12.480;2022-12-13T00:13:34;20.67;;;10.15;;
40997;SDS011;26740;45.944;12.480;2022-12-13T00:16:02;25.27;;;12.02;;
40997;SDS011;26740;45.944;12.480;2022-12-13T00:18:30;22.27;;;11.48;;
40997;SDS011;26740;45.944;12.480;2022-12-13T00:20:56;27.73;;;11.23;;
40997;SDS011;26740;45.944;12.480;2022-12-13T00:23:22;22.13;;;10.25;;
40997;SDS011;26740;45.944;12.480;2022-12-13T00:25:48;21.80;;;9.55;;
40997;SDS011;26740;45.944;12.480;2022-12-13T00:28:13;21.88;;;11.75;;
40997;SDS011;26740;45.944;12.480;2022-12-13T00:30:40;17.50;;;9.65;;
40997;SDS011;26740;45.944;12.480;2022-12-13T00:33:06;18.45;;;9.60;;
40997;SDS011;26740;45.944;12.480;2022-12-13T00:35:32;20.65;;;9.30;;
40997;SDS011;26740;45.944;12.480;2022-12-13T00:37:58;19.08;;;8.85;;
40997;SDS011;26740;45.944;12.480;2022-12-13T00:40:24;23.30;;;10.45;;
40997;SDS011;26740;45.944;12.480;2022-12-13T00:42:52;18.65;;;11.00;;
40997;SDS011;26740;45.944;12.480;2022-12-13T00:45:17;16.75;;;8.85;;
40997;SDS011;26740;45.944;12.480;2022-12-13T00:47:44;23.05;;;11.35;;
40997;SDS011;26740;45.944;12.480;2022-12-13T00:50:10;20.83;;;10.05;;
40997;SDS011;26740;45.944;12.480;2022-12-13T00:52:36;21.15;;;10.45;;
40997;SDS011;26740;45.944;12.480;2022-12-13T00:55:02;19.77;;;9.63;;
40997;SDS011;26740;45.944;12.480;2022-12-13T00:57:28;13.45;;;7.97;;
40997;SDS011;26740;45.944;12.480;2022-12-13T00:59:53;17.13;;;8.52;;
40997;SDS011;26740;45.944;12.480;2022-12-13T01:02:19;23.30;;;10.07;;
40997;SDS011;26740;45.944;12.480;2022-12-13T01:04:45;24.73;;;9.02;;
40997;SDS011;26740;45.944;12.480;2022-12-13T01:07:14;14.27;;;8.82;;
40997;SDS011;26740;45.944;12.480;2022-12-13T01:09:39;19.35;;;8.85;;
40997;SDS011;26740;45.944;12.480;2022-12-13T01:12:06;14.93;;;8.00;;
40997;SDS011;26740;45.944;12.480;2022-12-13T01:14:35;18.60;;;8.60;;
40997;SDS011;26740;45.944;12.480;2022-12-13T01:17:03;17.45;;;8.70;;
40997;SDS011;26740;45.944;12.480;2022-12-13T01:19:30;17.60;;;7.82;;
40997;SDS011;26740;45.944;12.480;2022-12-13T01:21:57;14.77;;;7.68;;
40997;SDS011;26740;45.944;12.480;2022-12-13T01:24:24;20.23;;;9.30;;
40997;SDS011;26740;45.944;12.480;2022-12-13T01:26:50;18.38;;;8.45;;
40997;SDS011;26740;45.944;12.480;2022-12-13T01:29:18;16.10;;;8.95;;
40997;SDS011;26740;45.944;12.480;2022-12-13T01:31:45;23.42;;;9.50;;
40997;SDS011;26740;45.944;12.480;2022-12-13T01:34:13;17.75;;;8.57;;
40997;SDS011;26740;45.944;12.480;2022-12-13T01:36:40;18.67;;;9.10;;
40997;SDS011;26740;45.944;12.480;2022-12-13T01:39:09;19.60;;;9.43;;
40997;SDS011;26740;45.944;12.480;2022-12-13T01:41:36;27.20;;;9.88;;
40997;SDS011;26740;45.944;12.480;2022-12-13T01:44:02;24.88;;;9.45;;
40997;SDS011;26740;45.944;12.480;2022-12-13T01:46:30;19.98;;;8.93;;
40997;SDS011;26740;45.944;12.480;2022-12-13T01:48:59;15.90;;;7.50;;
40997;SDS011;26740;45.944;12.480;2022-12-13T01:51:33;17.05;;;7.82;;
40997;SDS011;26740;45.944;12.480;2022-12-13T01:54:03;17.27;;;8.05;;
40997;SDS011;26740;45.944;12.480;2022-12-13T01:56:36;17.52;;;8.93;;
40997;SDS011;26740;45.944;12.480;2022-12-13T01:59:07;16.55;;;7.60;;
40997;SDS011;26740;45.944;12.480;2022-12-13T02:01:36;22.05;;;9.07;;
40997;SDS011;26740;45.944;12.480;2022-12-13T02:04:02;20.13;;;7.80;;
40997;SDS011;26740;45.944;12.480;2022-12-13T02:08:59;19.42;;;7.95;;
40997;SDS011;26740;45.944;12.480;2022-12-13T02:11:26;14.70;;;6.72;;
40997;SDS011;26740;45.944;12.480;2022-12-13T02:13:53;14.82;;;6.80;;
40997;SDS011;26740;45.944;12.480;2022-12-13T02:22:21;17.80;;;6.80;;
40997;SDS011;26740;45.944;12.480;2022-12-13T02:30:42;12.75;;;6.00;;
40997;SDS011;26740;45.944;12.480;2022-12-13T02:33:22;17.45;;;6.93;;
40997;SDS011;26740;45.944;12.480;2022-12-13T02:36:11;16.02;;;6.28;;
40997;SDS011;26740;45.944;12.480;2022-12-13T02:39:07;17.10;;;6.78;;
40997;SDS011;26740;45.944;12.480;2022-12-13T02:41:43;13.82;;;6.75;;
40997;SDS011;26740;45.944;12.480;2022-12-13T02:44:26;9.98;;;5.93;;
40997;SDS011;26740;45.944;12.480;2022-12-13T02:46:58;15.02;;;6.95;;
40997;SDS011;26740;45.944;12.480;2022-12-13T02:49:29;11.27;;;6.15;;
40997;SDS011;26740;45.944;12.480;2022-12-13T02:51:57;14.45;;;6.30;;
40997;SDS011;26740;45.944;12.480;2022-12-13T02:54:24;11.57;;;6.00;;
40997;SDS011;26740;45.944;12.480;2022-12-13T02:56:57;17.23;;;6.90;;
40997;SDS011;26740;45.944;12.480;2022-12-13T02:59:25;11.20;;;7.30;;
40997;SDS011;26740;45.944;12.480;2022-12-13T03:04:39;14.73;;;6.55;;
40997;SDS011;26740;45.944;12.480;2022-12-13T03:07:38;12.95;;;6.28;;
40997;SDS011;26740;45.944;12.480;2022-12-13T03:10:16;10.80;;;6.15;;
40997;SDS011;26740;45.944;12.480;2022-12-13T03:12:53;16.85;;;6.18;;
40997;SDS011;26740;45.944;12.480;2022-12-13T03:18:22;13.63;;;5.97;;
40997;SDS011;26740;45.944;12.480;2022-12-13T03:23:24;11.75;;;6.55;;
40997;SDS011;26740;45.944;12.480;2022-12-13T03:28:48;13.63;;;6.95;;
40997;SDS011;26740;45.944;12.480;2022-12-13T03:31:15;15.20;;;6.47;;
40997;SDS011;26740;45.944;12.480;2022-12-13T03:33:41;20.10;;;7.10;;
40997;SDS011;26740;45.944;12.480;2022-12-13T03:36:06;11.80;;;6.63;;
40997;SDS011;26740;45.944;12.480;2022-12-13T03:38:34;11.63;;;6.13;;
40997;SDS011;26740;45.944;12.480;2022-12-13T03:41:03;12.48;;;6.53;;
40997;SDS011;26740;45.944;12.480;2022-12-13T03:43:32;19.15;;;7.18;;
40997;SDS011;26740;45.944;12.480;2022-12-13T03:45:58;13.20;;;6.88;;
40997;SDS011;26740;45.944;12.480;2022-12-13T03:48:23;11.18;;;6.03;;
40997;SDS011;26740;45.944;12.480;2022-12-13T03:50:50;14.82;;;6.55;;
40997;SDS011;26740;45.944;12.480;2022-12-13T03:53:17;11.73;;;6.65;;
40997;SDS011;26740;45.944;12.480;2022-12-13T03:55:43;11.52;;;5.57;;
40997;SDS011;26740;45.944;12.480;2022-12-13T03:58:08;11.18;;;5.72;;
40997;SDS011;26740;45.944;12.480;2022-12-13T04:00:34;12.57;;;5.25;;
40997;SDS011;26740;45.944;12.480;2022-12-13T04:03:00;9.95;;;5.40;;
40997;SDS011;26740;45.944;12.480;2022-12-13T04:05:25;10.00;;;5.38;;
40997;SDS011;26740;45.944;12.480;2022-12-13T04:07:52;10.40;;;5.47;;
40997;SDS011;26740;45.944;12.480;2022-12-13T04:10:18;9.20;;;4.43;;
40997;SDS011;26740;45.944;12.480;2022-12-13T04:12:43;11.90;;;5.03;;
40997;SDS011;26740;45.944;12.480;2022-12-13T04:15:27;10.48;;;5.45;;
40997;SDS011;26740;45.944;12.480;2022-12-13T04:17:53;9.70;;;5.35;;
40997;SDS011;26740;45.944;12.480;2022-12-13T04:20:19;13.32;;;5.53;;
40997;SDS011;26740;45.944;12.480;2022-12-13T04:22:44;8.73;;;5.65;;
40997;SDS011;26740;45.944;12.480;2022-12-13T04:25:10;10.02;;;4.72;;
40997;SDS011;26740;45.944;12.480;2022-12-13T04:27:35;11.90;;;5.20;;
40997;SDS011;26740;45.944;12.480;2022-12-13T04:30:05;14.38;;;5.13;;
40997;SDS011;26740;45.944;12.480;2022-12-13T04:32:32;10.57;;;4.97;;
40997;SDS011;26740;45.944;12.480;2022-12-13T04:34:57;9.70;;;5.20;;
40997;SDS011;26740;45.944;12.480;2022-12-13T04:37:23;8.40;;;4.50;;
40997;SDS011;26740;45.944;12.480;2022-12-13T04:39:49;11.65;;;4.60;;
40997;SDS011;26740;45.944;12.480;2022-12-13T04:42:15;10.25;;;4.78;;
40997;SDS011;26740;45.944;12.480;2022-12-13T04:44:41;10.88;;;4.53;;
40997;SDS011;26740;45.944;12.480;2022-12-13T04:47:06;8.52;;;4.13;;
40997;SDS011;26740;45.944;12.480;2022-12-13T04:49:33;9.80;;;5.03;;
40997;SDS011;26740;45.944;12.480;2022-12-13T04:51:59;8.55;;;4.85;;
40997;SDS011;26740;45.944;12.480;2022-12-13T04:54:26;11.18;;;5.25;;
40997;SDS011;26740;45.944;12.480;2022-12-13T04:56:51;9.52;;;4.40;;
40997;SDS011;26740;45.944;12.480;2022-12-13T04:59:17;13.05;;;4.68;;
40997;SDS011;26740;45.944;12.480;2022-12-13T05:01:43;10.38;;;5.45;;
40997;SDS011;26740;45.944;12.480;2022-12-13T05:04:08;15.30;;;4.28;;
40997;SDS011;26740;45.944;12.480;2022-12-13T05:06:34;11.68;;;4.53;;
40997;SDS011;26740;45.944;12.480;2022-12-13T05:09:00;10.23;;;4.85;;
40997;SDS011;26740;45.944;12.480;2022-12-13T05:11:26;9.00;;;4.00;;
40997;SDS011;26740;45.944;12.480;2022-12-13T05:13:52;9.07;;;4.38;;
40997;SDS011;26740;45.944;12.480;2022-12-13T05:16:17;7.90;;;4.90;;
40997;SDS011;26740;45.944;12.480;2022-12-13T05:18:43;8.73;;;4.72;;
40997;SDS011;26740;45.944;12.480;2022-12-13T05:21:09;10.48;;;5.70;;
40997;SDS011;26740;45.944;12.480;2022-12-13T05:23:36;10.90;;;5.95;;
40997;SDS011;26740;45.944;12.480;2022-12-13T05:26:02;8.88;;;4.85;;
40997;SDS011;26740;45.944;12.480;2022-12-13T05:28:29;14.80;;;5.65;;
40997;SDS011;26740;45.944;12.480;2022-12-13T05:30:57;11.32;;;4.43;;
40997;SDS011;26740;45.944;12.480;2022-12-13T05:33:29;9.35;;;5.78;;
40997;SDS011;26740;45.944;12.480;2022-12-13T05:35:56;14.60;;;5.30;;
40997;SDS011;26740;45.944;12.480;2022-12-13T05:38:22;9.45;;;6.13;;
40997;SDS011;26740;45.944;12.480;2022-12-13T05:40:47;11.13;;;5.95;;
40997;SDS011;26740;45.944;12.480;2022-12-13T05:43:13;11.13;;;6.05;;
40997;SDS011;26740;45.944;12.480;2022-12-13T05:45:38;15.55;;;7.05;;
40997;SDS011;26740;45.944;12.480;2022-12-13T05:48:04;11.00;;;5.57;;
40997;SDS011;26740;45.944;12.480;2022-12-13T05:50:30;13.13;;;7.05;;
40997;SDS011;26740;45.944;12.480;2022-12-13T05:52:56;13.68;;;6.95;;
40997;SDS011;26740;45.944;12.480;2022-12-13T05:55:21;12.70;;;6.53;;
40997;SDS011;26740;45.944;12.480;2022-12-13T05:57:47;14.02;;;6.57;;
40997;SDS011;26740;45.944;12.480;2022-12-13T06:00:13;11.43;;;5.72;;
40997;SDS011;26740;45.944;12.480;2022-12-13T06:02:39;9.50;;;5.30;;
40997;SDS011;26740;45.944;12.480;2022-12-13T06:05:06;10.50;;;5.18;;
40997;SDS011;26740;45.944;12.480;2022-12-13T06:07:34;11.05;;;4.95;;
40997;SDS011;26740;45.944;12.480;2022-12-13T06:10:00;14.32;;;6.03;;
40997;SDS011;26740;45.944;12.480;2022-12-13T06:12:27;6.43;;;3.63;;
40997;SDS011;26740;45.944;12.480;2022-12-13T06:14:52;6.00;;;3.42;;
40997;SDS011;26740;45.944;12.480;2022-12-13T06:17:18;6.85;;;3.28;;
40997;SDS011;26740;45.944;12.480;2022-12-13T06:19:44;6.53;;;3.33;;
40997;SDS011;26740;45.944;12.480;2022-12-13T06:22:13;8.95;;;3.45;;
40997;SDS011;26740;45.944;12.480;2022-12-13T06:24:38;8.20;;;3.17;;
40997;SDS011;26740;45.944;12.480;2022-12-13T06:27:04;5.90;;;3.20;;
40997;SDS011;26740;45.944;12.480;2022-12-13T06:29:30;5.65;;;3.03;;
40997;SDS011;26740;45.944;12.480;2022-12-13T06:31:56;6.40;;;3.60;;
40997;SDS011;26740;45.944;12.480;2022-12-13T06:34:24;6.82;;;3.90;;
40997;SDS011;26740;45.944;12.480;2022-12-13T06:36:49;6.78;;;3.95;;
40997;SDS011;26740;45.944;12.480;2022-12-13T06:39:15;9.20;;;4.05;;
40997;SDS011;26740;45.944;12.480;2022-12-13T06:41:41;10.02;;;4.30;;
40997;SDS011;26740;45.944;12.480;2022-12-13T06:46:35;9.60;;;4.40;;
40997;SDS011;26740;45.944;12.480;2022-12-13T06:49:01;14.57;;;5.47;;
40997;SDS011;26740;45.944;12.480;2022-12-13T06:51:26;7.15;;;3.75;;
40997;SDS011;26740;45.944;12.480;2022-12-13T06:53:52;11.68;;;4.35;;
40997;SDS011;26740;45.944;12.480;2022-12-13T06:56:18;34.30;;;14.30;;
40997;SDS011;26740;45.944;12.480;2022-12-13T06:58:43;40.92;;;19.15;;
40997;SDS011;26740;45.944;12.480;2022-12-13T07:01:16;43.70;;;19.55;;
40997;SDS011;26740;45.944;12.480;2022-12-13T07:03:42;18.73;;;9.80;;
40997;SDS011;26740;45.944;12.480;2022-12-13T07:06:12;10.68;;;5.78;;
40997;SDS011;26740;45.944;12.480;2022-12-13T07:08:40;9.85;;;4.68;;
40997;SDS011;26740;45.944;12.480;2022-12-13T07:11:12;11.02;;;6.00;;
40997;SDS011;26740;45.944;12.480;2022-12-13T07:13:39;13.65;;;6.65;;
40997;SDS011;26740;45.944;12.480;2022-12-13T07:16:06;16.15;;;7.65;;
40997;SDS011;26740;45.944;12.480;2022-12-13T07:18:32;14.88;;;7.97;;
40997;SDS011;26740;45.944;12.480;2022-12-13T07:20:58;16.05;;;8.32;;
40997;SDS011;26740;45.944;12.480;2022-12-13T07:23:23;16.05;;;7.90;;
40997;SDS011;26740;45.944;12.480;2022-12-13T07:25:50;11.70;;;7.45;;
40997;SDS011;26740;45.944;12.480;2022-12-13T07:28:18;14.75;;;7.07;;
40997;SDS011;26740;45.944;12.480;2022-12-13T07:30:44;16.20;;;7.18;;
40997;SDS011;26740;45.944;12.480;2022-12-13T07:33:11;18.15;;;7.38;;
40997;SDS011;26740;45.944;12.480;2022-12-13T07:35:37;13.07;;;5.47;;
40997;SDS011;26740;45.944;12.480;2022-12-13T07:38:04;22.13;;;8.88;;
40997;SDS011;26740;45.944;12.480;2022-12-13T07:40:34;20.70;;;10.68;;
40997;SDS011;26740;45.944;12.480;2022-12-13T07:45:26;14.55;;;7.75;;
40997;SDS011;26740;45.944;12.480;2022-12-13T07:47:52;14.55;;;7.22;;
40997;SDS011;26740;45.944;12.480;2022-12-13T07:50:18;15.60;;;7.53;;
40997;SDS011;26740;45.944;12.480;2022-12-13T07:52:48;13.57;;;5.55;;
40997;SDS011;26740;45.944;12.480;2022-12-13T07:55:14;12.77;;;6.45;;
40997;SDS011;26740;45.944;12.480;2022-12-13T07:57:42;12.48;;;6.63;;
40997;SDS011;26740;45.944;12.480;2022-12-13T08:00:09;17.85;;;8.32;;
40997;SDS011;26740;45.944;12.480;2022-12-13T08:02:35;25.75;;;9.00;;
40997;SDS011;26740;45.944;12.480;2022-12-13T08:05:01;31.38;;;11.15;;
40997;SDS011;26740;45.944;12.480;2022-12-13T08:07:27;40.53;;;17.25;;
40997;SDS011;26740;45.944;12.480;2022-12-13T08:09:52;57.75;;;25.38;;
40997;SDS011;26740;45.944;12.480;2022-12-13T08:12:19;33.72;;;16.50;;
40997;SDS011;26740;45.944;12.480;2022-12-13T08:14:45;18.58;;;7.30;;
40997;SDS011;26740;45.944;12.480;2022-12-13T08:17:11;12.90;;;5.93;;
40997;SDS011;26740;45.944;12.480;2022-12-13T08:19:37;10.85;;;5.43;;
40997;SDS011;26740;45.944;12.480;2022-12-13T08:22:03;17.15;;;6.53;;
40997;SDS011;26740;45.944;12.480;2022-12-13T08:24:29;18.42;;;8.68;;
40997;SDS011;26740;45.944;12.480;2022-12-13T08:26:59;15.85;;;8.02;;
40997;SDS011;26740;45.944;12.480;2022-12-13T08:29:27;32.13;;;14.32;;
40997;SDS011;26740;45.944;12.480;2022-12-13T08:31:53;25.13;;;12.27;;
40997;SDS011;26740;45.944;12.480;2022-12-13T08:34:19;21.00;;;9.13;;
40997;SDS011;26740;45.944;12.480;2022-12-13T08:36:45;20.23;;;10.90;;
40997;SDS011;26740;45.944;12.480;2022-12-13T08:39:10;13.25;;;7.47;;
40997;SDS011;26740;45.944;12.480;2022-12-13T08:41:36;13.90;;;6.45;;
40997;SDS011;26740;45.944;12.480;2022-12-13T08:44:01;15.65;;;5.40;;
40997;SDS011;26740;45.944;12.480;2022-12-13T08:46:27;11.25;;;6.03;;
40997;SDS011;26740;45.944;12.480;2022-12-13T08:48:53;14.25;;;6.97;;
40997;SDS011;26740;45.944;12.480;2022-12-13T08:51:18;12.05;;;7.13;;
40997;SDS011;26740;45.944;12.480;2022-12-13T08:53:48;13.05;;;6.60;;
40997;SDS011;26740;45.944;12.480;2022-12-13T08:56:15;12.63;;;7.43;;
40997;SDS011;26740;45.944;12.480;2022-12-13T08:58:43;14.88;;;7.40;;
40997;SDS011;26740;45.944;12.480;2022-12-13T09:01:09;9.65;;;5.75;;
40997;SDS011;26740;45.944;12.480;2022-12-13T09:03:38;10.75;;;6.15;;
40997;SDS011;26740;45.944;12.480;2022-12-13T09:06:11;14.38;;;7.53;;
40997;SDS011;26740;45.944;12.480;2022-12-13T09:08:38;13.80;;;6.35;;
40997;SDS011;26740;45.944;12.480;2022-12-13T09:11:05;19.10;;;6.57;;
40997;SDS011;26740;45.944;12.480;2022-12-13T09:13:33;10.32;;;5.72;;
40997;SDS011;26740;45.944;12.480;2022-12-13T09:16:10;12.70;;;6.78;;
40997;SDS011;26740;45.944;12.480;2022-12-13T09:18:44;11.90;;;6.20;;
40997;SDS011;26740;45.944;12.480;2022-12-13T09:21:11;13.20;;;6.95;;
40997;SDS011;26740;45.944;12.480;2022-12-13T09:23:39;12.45;;;6.85;;
40997;SDS011;26740;45.944;12.480;2022-12-13T09:26:08;12.38;;;6.72;;
40997;SDS011;26740;45.944;12.480;2022-12-13T09:28:36;21.35;;;10.45;;
40997;SDS011;26740;45.944;12.480;2022-12-13T09:31:06;23.48;;;9.20;;
40997;SDS011;26740;45.944;12.480;2022-12-13T09:33:33;13.75;;;7.47;;
40997;SDS011;26740;45.944;12.480;2022-12-13T09:36:02;13.80;;;6.80;;
40997;SDS011;26740;45.944;12.480;2022-12-13T09:38:30;17.65;;;7.45;;
40997;SDS011;26740;45.944;12.480;2022-12-13T09:41:02;15.18;;;8.13;;
40997;SDS011;26740;45.944;12.480;2022-12-13T09:46:11;16.63;;;6.90;;
40997;SDS011;26740;45.944;12.480;2022-12-13T09:48:46;12.43;;;7.03;;
40997;SDS011;26740;45.944;12.480;2022-12-13T09:51:12;20.35;;;9.05;;
40997;SDS011;26740;45.944;12.480;2022-12-13T09:53:38;20.48;;;7.65;;
40997;SDS011;26740;45.944;12.480;2022-12-13T09:56:04;14.27;;;7.88;;
40997;SDS011;26740;45.944;12.480;2022-12-13T09:58:35;13.05;;;6.20;;
40997;SDS011;26740;45.944;12.480;2022-12-13T10:01:03;15.63;;;7.00;;
40997;SDS011;26740;45.944;12.480;2022-12-13T10:03:30;16.75;;;6.47;;
40997;SDS011;26740;45.944;12.480;2022-12-13T10:05:57;10.82;;;5.45;;
40997;SDS011;26740;45.944;12.480;2022-12-13T10:08:31;14.82;;;7.18;;
40997;SDS011;26740;45.944;12.480;2022-12-13T10:11:04;11.23;;;5.95;;
40997;SDS011;26740;45.944;12.480;2022-12-13T10:16:01;13.43;;;6.63;;
40997;SDS011;26740;45.944;12.480;2022-12-13T10:18:33;16.50;;;7.10;;
40997;SDS011;26740;45.944;12.480;2022-12-13T10:21:01;24.75;;;8.95;;
40997;SDS011;26740;45.944;12.480;2022-12-13T10:23:29;25.15;;;10.90;;
40997;SDS011;26740;45.944;12.480;2022-12-13T10:25:55;30.00;;;12.82;;
40997;SDS011;26740;45.944;12.480;2022-12-13T10:28:31;31.80;;;12.25;;
40997;SDS011;26740;45.944;12.480;2022-12-13T10:30:57;28.67;;;13.23;;
40997;SDS011;26740;45.944;12.480;2022-12-13T10:33:28;25.35;;;11.98;;
40997;SDS011;26740;45.944;12.480;2022-12-13T10:36:07;25.55;;;9.95;;
40997;SDS011;26740;45.944;12.480;2022-12-13T10:38:43;17.42;;;8.15;;
40997;SDS011;26740;45.944;12.480;2022-12-13T10:41:26;14.07;;;6.95;;
40997;SDS011;26740;45.944;12.480;2022-12-13T10:46:31;10.80;;;6.35;;
40997;SDS011;26740;45.944;12.480;2022-12-13T10:48:57;12.75;;;6.00;;
40997;SDS011;26740;45.944;12.480;2022-12-13T10:51:23;21.80;;;7.03;;
40997;SDS011;26740;45.944;12.480;2022-12-13T10:53:50;9.90;;;5.78;;
40997;SDS011;26740;45.944;12.480;2022-12-13T10:56:20;13.82;;;6.40;;
40997;SDS011;26740;45.944;12.480;2022-12-13T11:02:21;14.38;;;6.10;;
40997;SDS011;26740;45.944;12.480;2022-12-13T11:04:53;12.82;;;6.32;;
40997;SDS011;26740;45.944;12.480;2022-12-13T11:07:21;12.13;;;6.38;;
40997;SDS011;26740;45.944;12.480;2022-12-13T11:09:58;11.93;;;6.25;;
40997;SDS011;26740;45.944;12.480;2022-12-13T11:12:54;11.63;;;5.75;;
40997;SDS011;26740;45.944;12.480;2022-12-13T11:15:26;8.95;;;5.68;;
40997;SDS011;26740;45.944;12.480;2022-12-13T11:17:56;8.07;;;5.30;;
40997;SDS011;26740;45.944;12.480;2022-12-13T11:20:28;15.30;;;6.13;;
40997;SDS011;26740;45.944;12.480;2022-12-13T11:23:04;15.70;;;7.72;;
40997;SDS011;26740;45.944;12.480;2022-12-13T11:25:40;12.07;;;6.20;;
40997;SDS011;26740;45.944;12.480;2022-12-13T11:28:14;13.25;;;6.15;;
40997;SDS011;26740;45.944;12.480;2022-12-13T11:30:54;13.50;;;6.03;;
40997;SDS011;26740;45.944;12.480;2022-12-13T11:44:14;13.82;;;7.18;;
40997;SDS011;26740;45.944;12.480;2022-12-13T11:46:52;18.38;;;6.28;;
40997;SDS011;26740;45.944;12.480;2022-12-13T11:49:42;15.27;;;7.10;;
40997;SDS011;26740;45.944;12.480;2022-12-13T11:54:53;12.57;;;5.25;;
40997;SDS011;26740;45.944;12.480;2022-12-13T12:05:58;17.50;;;6.55;;
40997;SDS011;26740;45.944;12.480;2022-12-13T12:08:33;7.47;;;5.00;;
40997;SDS011;26740;45.944;12.480;2022-12-13T12:14:38;11.93;;;4.30;;
40997;SDS011;26740;45.944;12.480;2022-12-13T12:17:18;11.52;;;3.85;;
40997;SDS011;26740;45.944;12.480;2022-12-13T12:19:49;8.48;;;4.00;;
40997;SDS011;26740;45.944;12.480;2022-12-13T12:27:34;10.30;;;4.68;;
40997;SDS011;26740;45.944;12.480;2022-12-13T12:43:32;10.45;;;4.20;;
40997;SDS011;26740;45.944;12.480;2022-12-13T12:48:40;6.70;;;4.32;;
40997;SDS011;26740;45.944;12.480;2022-12-13T12:51:20;9.55;;;4.10;;
40997;SDS011;26740;45.944;12.480;2022-12-13T12:54:05;7.40;;;3.22;;
40997;SDS011;26740;45.944;12.480;2022-12-13T12:56:56;8.45;;;4.82;;
40997;SDS011;26740;45.944;12.480;2022-12-13T13:02:30;11.15;;;4.30;;
40997;SDS011;26740;45.944;12.480;2022-12-13T13:05:14;6.95;;;3.50;;
40997;SDS011;26740;45.944;12.480;2022-12-13T13:07:51;6.43;;;4.05;;
40997;SDS011;26740;45.944;12.480;2022-12-13T13:10:22;9.40;;;4.68;;
40997;SDS011;26740;45.944;12.480;2022-12-13T13:12:48;9.73;;;5.03;;
40997;SDS011;26740;45.944;12.480;2022-12-13T13:17:55;10.35;;;4.53;;
40997;SDS011;26740;45.944;12.480;2022-12-13T13:20:22;10.93;;;4.47;;
40997;SDS011;26740;45.944;12.480;2022-12-13T13:22:49;13.60;;;5.10;;
40997;SDS011;26740;45.944;12.480;2022-12-13T13:25:20;11.90;;;5.22;;
40997;SDS011;26740;45.944;12.480;2022-12-13T13:27:47;10.95;;;5.25;;
40997;SDS011;26740;45.944;12.480;2022-12-13T13:30:21;17.35;;;5.43;;
40997;SDS011;26740;45.944;12.480;2022-12-13T13:32:49;13.52;;;5.85;;
40997;SDS011;26740;45.944;12.480;2022-12-13T13:35:50;10.73;;;5.32;;
40997;SDS011;26740;45.944;12.480;2022-12-13T13:40:40;16.17;;;5.85;;
40997;SDS011;26740;45.944;12.480;2022-12-13T13:54:32;11.13;;;6.05;;
40997;SDS011;26740;45.944;12.480;2022-12-13T13:57:13;14.60;;;5.65;;
40997;SDS011;26740;45.944;12.480;2022-12-13T14:25:43;22.05;;;9.60;;
40997;SDS011;26740;45.944;12.480;2022-12-13T14:31:39;20.88;;;10.80;;
40997;SDS011;26740;45.944;12.480;2022-12-13T14:34:13;31.77;;;12.40;;
40997;SDS011;26740;45.944;12.480;2022-12-13T14:36:48;24.95;;;10.82;;
40997;SDS011;26740;45.944;12.480;2022-12-13T14:39:22;22.77;;;12.30;;
40997;SDS011;26740;45.944;12.480;2022-12-13T14:41:54;22.88;;;11.68;;
40997;SDS011;26740;45.944;12.480;2022-12-13T14:46:54;24.10;;;11.30;;
40997;SDS011;26740;45.944;12.480;2022-12-13T14:49:21;26.67;;;12.57;;
40997;SDS011;26740;45.944;12.480;2022-12-13T14:51:49;23.70;;;11.82;;
40997;SDS011;26740;45.944;12.480;2022-12-13T14:54:25;25.73;;;11.27;;
40997;SDS011;26740;45.944;12.480;2022-12-13T14:57:00;22.80;;;10.88;;
40997;SDS011;26740;45.944;12.480;2022-12-13T14:59:28;23.25;;;11.70;;
40997;SDS011;26740;45.944;12.480;2022-12-13T15:02:04;26.35;;;11.55;;
40997;SDS011;26740;45.944;12.480;2022-12-13T15:04:31;22.33;;;10.23;;
40997;SDS011;26740;45.944;12.480;2022-12-13T15:07:10;20.33;;;11.55;;
40997;SDS011;26740;45.944;12.480;2022-12-13T15:09:55;25.13;;;12.45;;
40997;SDS011;26740;45.944;12.480;2022-12-13T15:12:23;32.22;;;14.88;;
40997;SDS011;26740;45.944;12.480;2022-12-13T15:14:52;29.13;;;15.55;;
40997;SDS011;26740;45.944;12.480;2022-12-13T15:17:33;28.00;;;15.33;;
40997;SDS011;26740;45.944;12.480;2022-12-13T15:20:19;29.58;;;15.15;;
40997;SDS011;26740;45.944;12.480;2022-12-13T15:22:45;25.50;;;14.27;;
40997;SDS011;26740;45.944;12.480;2022-12-13T15:25:12;35.92;;;16.10;;
40997;SDS011;26740;45.944;12.480;2022-12-13T15:27:39;40.75;;;14.70;;
40997;SDS011;26740;45.944;12.480;2022-12-13T15:30:05;27.17;;;13.45;;
40997;SDS011;26740;45.944;12.480;2022-12-13T15:32:37;35.95;;;12.90;;
40997;SDS011;26740;45.944;12.480;2022-12-13T15:35:30;32.13;;;13.95;;
40997;SDS011;26740;45.944;12.480;2022-12-13T15:37:57;26.35;;;12.85;;
40997;SDS011;26740;45.944;12.480;2022-12-13T15:40:23;30.88;;;13.05;;
40997;SDS011;26740;45.944;12.480;2022-12-13T15:42:48;25.52;;;14.13;;
40997;SDS011;26740;45.944;12.480;2022-12-13T15:45:17;27.77;;;13.90;;
40997;SDS011;26740;45.944;12.480;2022-12-13T15:53:24;26.13;;;13.45;;
40997;SDS011;26740;45.944;12.480;2022-12-13T15:55:52;29.17;;;15.82;;
40997;SDS011;26740;45.944;12.480;2022-12-13T15:58:24;28.63;;;13.82;;
40997;SDS011;26740;45.944;12.480;2022-12-13T16:00:58;33.60;;;14.32;;
40997;SDS011;26740;45.944;12.480;2022-12-13T16:03:37;31.02;;;15.73;;
40997;SDS011;26740;45.944;12.480;2022-12-13T16:06:06;36.38;;;14.57;;
40997;SDS011;26740;45.944;12.480;2022-12-13T16:08:34;32.85;;;16.48;;
40997;SDS011;26740;45.944;12.480;2022-12-13T16:11:02;39.20;;;17.33;;
40997;SDS011;26740;45.944;12.480;2022-12-13T16:13:30;29.45;;;15.20;;
40997;SDS011;26740;45.944;12.480;2022-12-13T16:15:58;30.15;;;16.05;;
40997;SDS011;26740;45.944;12.480;2022-12-13T16:18:31;30.25;;;14.68;;
40997;SDS011;26740;45.944;12.480;2022-12-13T16:23:33;31.55;;;16.98;;
40997;SDS011;26740;45.944;12.480;2022-12-13T16:25:58;30.02;;;15.95;;
40997;SDS011;26740;45.944;12.480;2022-12-13T16:28:24;38.47;;;17.30;;
40997;SDS011;26740;45.944;12.480;2022-12-13T16:30:55;42.65;;;18.23;;
40997;SDS011;26740;45.944;12.480;2022-12-13T16:33:26;36.35;;;17.10;;
40997;SDS011;26740;45.944;12.480;2022-12-13T16:35:53;35.13;;;15.77;;
40997;SDS011;26740;45.944;12.480;2022-12-13T16:38:19;36.67;;;17.95;;
40997;SDS011;26740;45.944;12.480;2022-12-13T16:40:45;37.30;;;18.85;;
40997;SDS011;26740;45.944;12.480;2022-12-13T16:43:16;37.80;;;18.77;;
40997;SDS011;26740;45.944;12.480;2022-12-13T16:45:45;44.83;;;19.48;;
40997;SDS011;26740;45.944;12.480;2022-12-13T16:48:13;33.53;;;18.53;;
40997;SDS011;26740;45.944;12.480;2022-12-13T16:50:43;33.22;;;17.00;;
40997;SDS011;26740;45.944;12.480;2022-12-13T16:53:11;28.83;;;15.57;;
40997;SDS011;26740;45.944;12.480;2022-12-13T16:55:37;32.47;;;16.08;;
40997;SDS011;26740;45.944;12.480;2022-12-13T16:58:04;31.88;;;14.98;;
40997;SDS011;26740;45.944;12.480;2022-12-13T17:00:32;29.17;;;14.15;;